createdAt,value
2023-01-22T00:02:16.372Z,40.6
2023-01-22T00:09:48.695Z,40.7
2023-01-22T00:17:21.088Z,40.8
2023-01-22T00:24:53.408Z,40.8
2023-01-22T00:32:25.740Z,40.8
2023-01-22T00:39:58.060Z,40.8
2023-01-22T00:47:30.376Z,40.8
2023-01-22T00:55:02.701Z,40.9
2023-01-22T01:02:35.045Z,40.9
2023-01-22T01:10:07.349Z,40.9
2023-01-22T01:17:39.683Z,40.8
2023-01-22T01:25:12.059Z,41.1
2023-01-22T01:32:44.385Z,41.0
2023-01-22T01:40:16.945Z,41.1
2023-01-22T01:47:49.399Z,41.2
2023-01-22T01:55:21.708Z,41.3
2023-01-22T02:02:54.029Z,41.4
2023-01-22T02:10:26.334Z,41.4
2023-01-22T02:17:58.637Z,41.5
2023-01-22T02:25:30.952Z,41.5
2023-01-22T02:33:03.274Z,41.5
2023-01-22T02:40:35.591Z,41.5
2023-01-22T02:48:07.911Z,41.6
2023-01-22T02:55:40.216Z,41.6
2023-01-22T03:03:12.534Z,41.6
2023-01-22T03:10:44.838Z,41.7
2023-01-22T03:18:17.158Z,41.5
2023-01-22T03:25:49.454Z,41.6
2023-01-22T03:33:21.737Z,41.6
2023-01-22T03:40:54.091Z,41.7
2023-01-22T03:48:26.414Z,41.7
2023-01-22T03:55:58.723Z,41.7
2023-01-22T04:03:31.052Z,41.7
2023-01-22T04:11:03.392Z,41.7
2023-01-22T04:18:35.717Z,41.7
2023-01-22T04:26:08.063Z,41.7
2023-01-22T04:33:40.379Z,41.7
2023-01-22T04:41:12.720Z,41.7
2023-01-22T04:48:45.043Z,41.7
2023-01-22T04:56:17.367Z,41.7
2023-01-22T05:03:49.680Z,41.7
2023-01-22T05:11:21.999Z,41.8
2023-01-22T05:18:54.340Z,41.8
2023-01-22T05:26:26.664Z,41.8
2023-01-22T05:33:58.976Z,41.8
2023-01-22T05:41:31.278Z,41.8
2023-01-22T05:49:03.576Z,41.8
2023-01-22T05:56:35.901Z,41.9
2023-01-22T06:04:08.218Z,41.8
2023-01-22T06:11:40.543Z,41.9
2023-01-22T06:19:12.973Z,41.9
2023-01-22T06:26:45.271Z,41.9
2023-01-22T06:34:17.574Z,41.9
2023-01-22T06:41:49.875Z,41.9
2023-01-22T06:49:22.201Z,42.0
2023-01-22T06:56:54.526Z,42.0
2023-01-22T07:04:26.831Z,42.0
2023-01-22T07:11:59.146Z,41.9
2023-01-22T07:19:31.471Z,42.0
2023-01-22T07:27:03.794Z,42.0
2023-01-22T07:34:36.136Z,42.0
2023-01-22T07:42:08.454Z,42.0
2023-01-22T07:49:40.812Z,42.0
2023-01-22T07:53:03.094Z,42.1
2023-01-22T07:53:50.419Z,42.0
2023-01-22T07:54:37.828Z,42.1
2023-01-22T07:55:25.136Z,42.1
2023-01-22T07:56:12.451Z,41.8
2023-01-22T07:56:59.753Z,41.6
2023-01-22T08:04:32.080Z,41.8
2023-01-22T08:12:04.390Z,42.3
2023-01-22T08:19:36.690Z,42.4
2023-01-22T08:24:08.964Z,42.3
2023-01-22T08:24:56.341Z,42.2
2023-01-22T08:32:28.812Z,42.2
2023-01-22T08:40:01.174Z,42.5
2023-01-22T08:47:33.502Z,42.5
2023-01-22T08:55:05.832Z,42.4
2023-01-22T09:02:38.134Z,42.5
2023-01-22T09:10:10.446Z,42.8
2023-01-22T09:17:42.764Z,42.7
2023-01-22T09:25:15.081Z,42.6
2023-01-22T09:32:47.479Z,42.5
2023-01-22T09:40:19.971Z,42.6
2023-01-22T09:47:52.467Z,42.7
2023-01-22T09:55:24.795Z,42.7
2023-01-22T10:02:57.127Z,42.8
2023-01-22T10:10:29.440Z,42.8
2023-01-22T10:18:01.764Z,42.8
2023-01-22T10:25:34.072Z,42.8
2023-01-22T10:33:06.408Z,42.9
2023-01-22T10:40:38.753Z,42.9
2023-01-22T10:48:11.059Z,43.0
2023-01-22T10:55:43.376Z,43.1
2023-01-22T11:03:16.125Z,43.3
2023-01-22T11:10:48.421Z,43.3
2023-01-22T11:18:20.766Z,43.4
2023-01-22T11:25:53.096Z,43.4
2023-01-22T11:33:25.429Z,43.3
2023-01-22T11:40:57.757Z,43.4
2023-01-22T11:48:30.224Z,43.4
2023-01-22T11:56:02.582Z,43.4
2023-01-22T12:03:35.021Z,43.4
2023-01-22T12:11:07.387Z,43.4
2023-01-22T12:18:39.710Z,43.4
2023-01-22T12:26:12.157Z,43.4
2023-01-22T12:33:44.501Z,43.5
2023-01-22T12:41:16.795Z,44.1
2023-01-22T12:48:49.116Z,43.6
2023-01-22T12:56:21.441Z,43.7
2023-01-22T13:03:53.751Z,43.6
2023-01-22T13:11:26.071Z,43.6
2023-01-22T13:19:00.606Z,43.6
2023-01-22T13:26:33.155Z,43.7
2023-01-22T13:34:05.484Z,43.7
2023-01-22T13:41:37.801Z,43.6
2023-01-22T13:49:10.104Z,43.6
2023-01-22T13:56:42.415Z,43.5
2023-01-22T14:04:14.729Z,43.5
2023-01-22T14:11:48.732Z,43.5
2023-01-22T14:19:22.313Z,43.6
2023-01-22T14:26:54.624Z,43.6
2023-01-22T14:34:26.938Z,44.3
2023-01-22T14:41:59.491Z,43.7
2023-01-22T14:49:31.800Z,43.8
2023-01-22T14:57:04.172Z,43.8
2023-01-22T15:04:36.484Z,43.8
2023-01-22T15:12:08.802Z,43.9
2023-01-22T15:19:41.847Z,43.9
2023-01-22T15:27:14.287Z,43.9
2023-01-22T15:34:46.611Z,43.9
2023-01-22T15:42:18.909Z,44.0
2023-01-22T15:49:51.213Z,44.0
2023-01-22T15:57:23.536Z,43.9
2023-01-22T16:04:55.850Z,43.9
2023-01-22T16:12:28.557Z,44.0
2023-01-22T16:20:00.867Z,44.0
2023-01-22T16:27:33.186Z,44.0
2023-01-22T16:35:05.539Z,44.0
2023-01-22T16:39:37.842Z,44.0
2023-01-22T16:47:10.153Z,44.0
2023-01-22T16:54:42.454Z,44.1
2023-01-22T17:02:14.844Z,44.1
2023-01-22T17:09:47.242Z,44.1
2023-01-22T17:17:19.568Z,44.2
2023-01-22T17:24:51.884Z,44.2
2023-01-22T17:32:24.214Z,44.2
2023-01-22T17:39:56.560Z,44.3
2023-01-22T17:47:28.941Z,44.3
2023-01-22T17:55:01.251Z,44.3
2023-01-22T18:02:33.561Z,44.3
2023-01-22T18:10:05.875Z,44.3
2023-01-22T18:17:38.186Z,44.3
2023-01-22T18:25:10.502Z,44.4
2023-01-22T18:32:42.843Z,44.4
2023-01-22T18:40:15.148Z,44.4
2023-01-22T18:47:47.450Z,44.4
2023-01-22T18:55:20.103Z,44.4
2023-01-22T19:02:52.727Z,44.4
2023-01-22T19:10:25.126Z,44.4
2023-01-22T19:17:57.433Z,44.3
2023-01-22T19:25:29.739Z,44.4
2023-01-22T19:33:02.044Z,44.4
2023-01-22T19:40:34.359Z,44.4
2023-01-22T19:48:06.674Z,44.4
2023-01-22T19:55:39.218Z,44.9
2023-01-22T20:03:11.529Z,44.3
2023-01-22T20:10:43.863Z,44.3
2023-01-22T20:18:16.197Z,44.2
2023-01-22T20:25:48.511Z,44.3
2023-01-22T20:33:20.827Z,44.3
2023-01-22T20:40:53.168Z,44.2
2023-01-22T20:48:25.520Z,44.1
2023-01-22T20:55:57.845Z,44.0
2023-01-22T21:03:30.186Z,44.0
2023-01-22T21:11:02.501Z,43.9
2023-01-22T21:18:34.820Z,43.9
2023-01-22T21:26:07.123Z,43.9
2023-01-22T21:33:39.546Z,43.9
2023-01-22T21:41:11.865Z,43.9
2023-01-22T21:48:44.200Z,43.8
2023-01-22T21:56:16.507Z,43.8
2023-01-22T22:03:48.845Z,43.7
2023-01-22T22:11:21.237Z,43.6
2023-01-22T22:18:53.548Z,43.6
2023-01-22T22:26:25.850Z,43.5
2023-01-22T22:33:58.386Z,43.5
2023-01-22T22:41:30.710Z,43.5
2023-01-22T22:49:03.031Z,43.4
2023-01-22T22:56:35.342Z,43.3
2023-01-22T23:04:07.803Z,43.2
2023-01-22T23:11:40.136Z,43.1
2023-01-22T23:19:12.472Z,43.3
2023-01-22T23:26:44.797Z,43.2
2023-01-22T23:34:17.115Z,43.1
2023-01-22T23:41:49.424Z,43.0
2023-01-22T23:49:21.737Z,43.0
2023-01-22T23:56:54.058Z,42.9
